CheckWX is a tool to help pilots better visualize weather data.  It is not intended as a substitute for an official pre-flight weather briefing.

16:33:08 UTC

HESH METAR
Sharm El Sheikh International Airport
Sharm el-Sheikh, Egypt
Current

2 hours ago

HESH 181500Z 01010KT 9999 FEW020 32/17 Q1011 NOSIG
Observed
Oct-18 @ 15:00 UTC
Wind
  • 010° at 10 KTS
Visibility
10,000+ meters
Flight Rules
VFR
Cloud Levels
  • Few at 2,000' AGL
Temperature
32°C / 90°F
Dewpoint
17°C / 63°F
Heat Index
33°C / 91°F
Humidity
41%
Altimeter
29.85" Hg
Pressure
1010.92 hPa
Previous

3 hours ago

HESH 181400Z 01011KT 9999 FEW020 32/18 Q1011 NOSIG
Observed
Oct-18 @ 14:00 UTC
Wind
  • 010° at 11 KTS
Visibility
10,000+ meters
Flight Rules
VFR
Cloud Levels
  • Few at 2,000' AGL
Temperature
32°C / 90°F
Dewpoint
18°C / 64°F
Heat Index
33°C / 92°F
Humidity
43%
Altimeter
29.85" Hg
Pressure
1010.92 hPa
Previous

4 hours ago

HESH 181300Z 01012KT 9999 FEW020 33/15 Q1011 NOSIG
Observed
Oct-18 @ 13:00 UTC
Wind
  • 010° at 12 KTS
Visibility
10,000+ meters
Flight Rules
VFR
Cloud Levels
  • Few at 2,000' AGL
Temperature
33°C / 91°F
Dewpoint
15°C / 59°F
Humidity
34%
Altimeter
29.85" Hg
Pressure
1010.92 hPa